Aviation Digital Data Service (ADDS)

Output produced by METARs form (2037 UTC 21 July 2017)
found at http://www.aviationweather.gov/adds/metars/
 
RCTP 212000Z 15006KT 9999 FEW020 BKN030 29/26 Q1010 NOSIG RMK A2983
TAF RCTP 211700Z 2118/2224 21005KT 9999 FEW020 
     BECMG 2200/2202 36010KT 
     TEMPO 2207/2212 06015KT 
     BECMG 2213/2215 18005KT 
       
RCMQ 212000Z 00000KT 9999 FEW012 BKN050 26/24 Q1010 RMK A2985
TAF RCMQ 211700Z 2118/2218 06004KT 9999 FEW012 SCT060 TX33/2205Z TN26/2120Z 
     BECMG 2201/2204 36006KT FEW012 BKN100 
     BECMG 2208/2211 FEW012 SCT060 
     BECMG 2212/2215 06004KT
       
TAF RCFN 211700Z 2118/2218 33005KT 9999 FEW015 
     BECMG 2200/2202 07008KT FEW012 BKN032 
     TEMPO 2204/2208 10013KT 5000 SHRA FEW012 FEW015CB BKN018 BKN050 
     BECMG 2210/2212 30005KT 
       
RCKH 212000Z 01006KT 9999 FEW015 BKN150 29/25 Q1009 NOSIG RMK A2980
TAF RCKH 211700Z 2118/2224 05005KT 9999 FEW012 BKN032 
     BECMG 2202/2204 30008KT 
     TEMPO 2208/2213 18013KT 5000 SHRA FEW010 FEW014CB BKN017 BKN040 
     BECMG 2213/2215 15008KT 
     TEMPO 2218/2224 03005KT
       
RCSS 212000Z 21003KT 180V240 9999 FEW025 29/23 Q1010 NOSIG RMK A2983
TAF RCSS 211700Z 2118/2218 09008KT 9999 FEW015 
     TEMPO 2120/2202 VRB03KT 
     TEMPO 2206/2212 09013KT 
       
RCNN 212000Z 01005KT 9999 FEW012 BKN060 26/24 Q1009 RMK A2980
TAF RCNN 211700Z 2118/2218 05004KT 9999 FEW012 SCT080 TX34/2206Z TN25/2121Z 
     BECMG 2202/2205 32006KT FEW012 BKN120 
     TEMPO 2206/2210 7000 -RA FEW010 BKN025 
     BECMG 2213/2216 01004KT FEW012 SCT060